createdAt,value
2018-06-05T00:02:35.054Z,99.90
2018-06-05T00:05:38.698Z,99.90
2018-06-05T00:08:42.522Z,99.90
2018-06-05T00:11:46.161Z,99.90
2018-06-05T00:14:56.373Z,99.90
2018-06-05T00:18:00.023Z,99.90
2018-06-05T00:21:03.668Z,99.90
2018-06-05T00:24:07.321Z,99.90
2018-06-05T00:27:10.932Z,99.90
2018-06-05T00:30:14.569Z,99.90
2018-06-05T00:33:18.203Z,99.90
2018-06-05T00:36:21.835Z,99.90
2018-06-05T00:39:25.443Z,99.90
2018-06-05T00:42:29.075Z,99.90
2018-06-05T00:45:32.690Z,99.90
2018-06-05T00:48:36.374Z,99.90
2018-06-05T00:51:51.582Z,99.90
2018-06-05T00:54:55.302Z,99.90
2018-06-05T00:57:59.007Z,99.90
2018-06-05T01:01:02.638Z,99.90
2018-06-05T01:04:06.252Z,99.90
2018-06-05T01:10:13.430Z,99.90
2018-06-05T01:13:17.114Z,99.90
2018-06-05T01:16:20.814Z,99.90
2018-06-05T01:19:24.450Z,99.90
2018-06-05T01:22:28.241Z,99.90
2018-06-05T01:25:31.872Z,99.90
2018-06-05T01:31:40.310Z,99.90
2018-06-05T01:34:43.965Z,99.90
2018-06-05T01:37:47.598Z,99.90
2018-06-05T01:40:51.261Z,99.90
2018-06-05T01:43:54.903Z,99.90
2018-06-05T01:46:58.523Z,99.90
2018-06-05T01:53:06.474Z,99.90
2018-06-05T01:56:10.194Z,99.90
2018-06-05T01:59:13.949Z,99.90
2018-06-05T02:02:17.601Z,99.90
2018-06-05T02:05:21.214Z,99.90
2018-06-05T02:08:24.958Z,99.90
2018-06-05T02:11:28.543Z,99.90
2018-06-05T02:14:32.166Z,99.90
2018-06-05T02:17:35.792Z,99.90
2018-06-05T02:20:39.519Z,99.90
2018-06-05T02:23:43.436Z,99.90
2018-06-05T02:26:47.090Z,99.90
2018-06-05T02:29:51.009Z,99.90
2018-06-05T02:32:54.741Z,99.90
2018-06-05T02:35:58.369Z,99.90
2018-06-05T02:39:02.001Z,99.90
2018-06-05T02:45:08.974Z,99.90
2018-06-05T02:48:12.654Z,99.90
2018-06-05T02:51:16.290Z,99.90
2018-06-05T02:54:19.958Z,99.90
2018-06-05T02:57:23.592Z,99.90
2018-06-05T03:00:27.751Z,99.90
2018-06-05T03:03:31.479Z,99.90
2018-06-05T03:06:35.118Z,99.90
2018-06-05T03:09:38.783Z,99.90
2018-06-05T03:12:42.412Z,99.90
2018-06-05T03:15:46.038Z,99.90
2018-06-05T03:21:53.017Z,99.90
2018-06-05T03:24:56.689Z,99.90
2018-06-05T03:28:00.339Z,99.90
2018-06-05T03:34:08.319Z,99.90
2018-06-05T03:37:11.939Z,99.90
2018-06-05T03:40:15.566Z,99.90
2018-06-05T03:46:22.614Z,99.90
2018-06-05T03:49:26.234Z,99.90
2018-06-05T03:52:29.921Z,99.90
2018-06-05T03:55:33.543Z,99.90
2018-06-05T03:58:37.179Z,99.90
2018-06-05T04:04:44.255Z,99.90
2018-06-05T04:07:47.892Z,99.90
2018-06-05T04:10:51.532Z,99.90
2018-06-05T04:13:55.158Z,99.90
2018-06-05T04:16:59.146Z,99.90
2018-06-05T04:20:02.830Z,99.90
2018-06-05T04:23:06.467Z,99.90
2018-06-05T04:26:10.145Z,99.90
2018-06-05T04:29:13.789Z,99.90
2018-06-05T04:32:17.482Z,99.90
2018-06-05T04:35:21.319Z,99.90
2018-06-05T04:41:28.294Z,99.90
2018-06-05T04:44:31.970Z,99.90
2018-06-05T04:47:35.625Z,99.90
2018-06-05T04:53:43.216Z,99.90
2018-06-05T04:56:46.897Z,99.90
2018-06-05T04:59:50.557Z,99.90
2018-06-05T05:02:54.175Z,99.90
2018-06-05T05:05:57.834Z,99.90
2018-06-05T05:09:01.523Z,99.90
2018-06-05T05:12:05.202Z,99.90
2018-06-05T05:15:08.817Z,99.90
2018-06-05T05:18:12.450Z,99.90
2018-06-05T05:24:19.460Z,99.90
2018-06-05T05:30:27.227Z,99.90
2018-06-05T05:33:30.873Z,99.90
2018-06-05T05:36:34.483Z,99.90
2018-06-05T05:39:38.108Z,99.90
2018-06-05T05:42:41.942Z,99.90
2018-06-05T05:45:45.588Z,99.90
2018-06-05T05:48:49.230Z,99.90
2018-06-05T05:51:52.895Z,99.90
2018-06-05T05:57:59.936Z,99.90
2018-06-05T06:01:03.670Z,99.90
2018-06-05T06:04:07.290Z,99.90
2018-06-05T06:10:14.366Z,99.90
2018-06-05T06:13:18.117Z,99.90
2018-06-05T06:16:21.964Z,99.90
2018-06-05T06:19:25.612Z,99.90
2018-06-05T06:22:29.452Z,99.90
2018-06-05T06:25:33.125Z,99.90
2018-06-05T06:28:36.740Z,99.90
2018-06-05T06:31:40.532Z,99.90
2018-06-05T06:37:47.975Z,99.90
2018-06-05T06:40:51.597Z,99.90
2018-06-05T06:43:55.246Z,99.90
2018-06-05T06:50:02.229Z,99.90
2018-06-05T06:53:06.030Z,99.90
2018-06-05T06:56:09.674Z,99.90
2018-06-05T06:59:13.309Z,99.90
2018-06-05T07:02:16.935Z,99.90
2018-06-05T07:05:20.550Z,99.90
2018-06-05T07:08:24.353Z,99.90
2018-06-05T07:11:27.989Z,99.90
2018-06-05T07:17:34.975Z,99.90
2018-06-05T07:23:42.035Z,99.90
2018-06-05T07:26:45.670Z,99.90
2018-06-05T07:32:52.687Z,99.90
2018-06-05T07:35:56.319Z,99.90
2018-06-05T07:38:59.947Z,99.90
2018-06-05T07:42:03.603Z,99.90
2018-06-05T07:45:07.433Z,99.90
2018-06-05T07:48:11.088Z,99.90
2018-06-05T07:51:14.689Z,99.90
2018-06-05T07:54:18.326Z,99.90
2018-06-05T07:57:21.959Z,99.90
2018-06-05T08:00:25.966Z,99.90
2018-06-05T08:03:29.613Z,99.90
2018-06-05T08:09:36.629Z,99.90
2018-06-05T08:12:40.310Z,99.90
2018-06-05T08:15:43.969Z,99.90
2018-06-05T08:18:47.587Z,99.90
2018-06-05T08:21:51.215Z,99.90
2018-06-05T08:24:54.825Z,99.90
2018-06-05T08:27:58.458Z,99.90
2018-06-05T08:31:02.075Z,99.90
2018-06-05T08:34:05.711Z,99.90
2018-06-05T08:37:09.346Z,99.90
2018-06-05T08:40:12.987Z,99.90
2018-06-05T08:43:16.603Z,99.90
2018-06-05T08:46:20.238Z,99.90
2018-06-05T08:49:23.864Z,99.90
2018-06-05T08:52:27.502Z,99.90
2018-06-05T08:55:31.141Z,99.90
2018-06-05T08:58:34.758Z,99.90
2018-06-05T09:01:38.382Z,99.90
2018-06-05T09:04:42.031Z,99.90
2018-06-05T09:07:45.692Z,99.90
2018-06-05T09:10:49.367Z,99.90
2018-06-05T09:13:52.942Z,99.90
2018-06-05T09:20:00.113Z,99.90
2018-06-05T09:23:03.761Z,99.90
2018-06-05T09:29:10.735Z,99.90
2018-06-05T09:32:14.359Z,99.90
2018-06-05T09:35:18.036Z,99.90
2018-06-05T09:38:22.506Z,99.90
2018-06-05T09:41:26.151Z,99.90
2018-06-05T09:44:30.686Z,99.90
2018-06-05T09:47:34.323Z,99.90
2018-06-05T09:50:38.170Z,99.90
2018-06-05T09:53:41.825Z,99.90
2018-06-05T09:56:45.425Z,99.90
2018-06-05T10:02:52.394Z,99.90
2018-06-05T10:05:56.032Z,99.90
2018-06-05T10:08:59.649Z,99.90
2018-06-05T10:12:03.327Z,99.90
2018-06-05T10:18:10.321Z,99.90
2018-06-05T10:24:17.330Z,99.90
2018-06-05T10:27:20.946Z,99.90
2018-06-05T10:30:24.634Z,99.90
2018-06-05T10:33:28.230Z,99.90
2018-06-05T10:36:31.900Z,99.90
2018-06-05T10:39:35.530Z,99.90
2018-06-05T10:42:39.170Z,99.90
2018-06-05T10:45:42.807Z,99.90
2018-06-05T10:48:46.472Z,99.90
2018-06-05T10:51:50.104Z,99.90
2018-06-05T10:54:54.011Z,99.90
2018-06-05T10:57:57.643Z,99.90
2018-06-05T11:01:01.279Z,99.90
2018-06-05T11:04:04.952Z,99.90
2018-06-05T11:07:08.570Z,99.90
2018-06-05T11:13:15.579Z,99.90
2018-06-05T11:16:19.204Z,99.90
2018-06-05T11:19:22.842Z,99.90
2018-06-05T11:22:26.461Z,99.90
2018-06-05T11:25:30.110Z,99.90
2018-06-05T11:28:33.741Z,99.90
2018-06-05T11:31:37.394Z,99.90
2018-06-05T11:34:41.007Z,99.90
2018-06-05T11:37:44.644Z,99.90
2018-06-05T11:40:48.274Z,99.90
2018-06-05T11:43:51.907Z,99.90
2018-06-05T11:46:55.544Z,99.90
2018-06-05T11:49:59.201Z,99.90
2018-06-05T11:56:06.198Z,99.90
2018-06-05T12:02:13.198Z,99.90
2018-06-05T12:05:16.825Z,99.90
2018-06-05T12:08:20.454Z,99.90
2018-06-05T12:11:24.066Z,99.90
2018-06-05T12:14:27.694Z,99.90
2018-06-05T12:20:34.794Z,99.90
2018-06-05T12:26:41.921Z,99.90
2018-06-05T12:29:45.558Z,99.90
2018-06-05T12:32:49.272Z,99.90
2018-06-05T12:35:52.918Z,99.90
2018-06-05T12:45:03.304Z,99.90
2018-06-05T12:51:10.271Z,99.90
2018-06-05T12:54:13.908Z,99.90
2018-06-05T12:57:17.546Z,99.60
2018-06-05T13:00:21.418Z,99.90
2018-06-05T13:03:25.124Z,99.90
2018-06-05T13:06:28.720Z,99.90
2018-06-05T13:09:32.398Z,99.70
2018-06-05T13:12:36.033Z,99.90
2018-06-05T13:21:46.549Z,99.80
2018-06-05T13:24:50.173Z,99.70
2018-06-05T13:27:53.821Z,99.40
2018-06-05T13:34:00.831Z,98.10
2018-06-05T13:37:04.474Z,96.40
2018-06-05T13:40:08.675Z,96.90
2018-06-05T13:43:12.291Z,97.20
2018-06-05T13:46:15.938Z,98.10
2018-06-05T13:49:19.569Z,97.30
2018-06-05T13:52:23.259Z,97.60
2018-06-05T13:55:26.826Z,97.60
2018-06-05T13:58:30.459Z,98.30
2018-06-05T14:04:37.462Z,99.70
2018-06-05T14:07:47.743Z,99.60
2018-06-05T14:10:51.431Z,99.90
2018-06-05T14:16:58.453Z,99.90
2018-06-05T14:20:02.078Z,99.40
2018-06-05T14:23:06.366Z,99.30
2018-06-05T14:26:10.028Z,99.10
2018-06-05T14:29:13.662Z,99.10
2018-06-05T14:32:17.314Z,99.00
2018-06-05T14:35:20.996Z,99.80
2018-06-05T14:38:24.593Z,99.90
2018-06-05T14:41:28.269Z,99.90
2018-06-05T14:44:31.896Z,99.90
2018-06-05T14:47:35.526Z,99.90
2018-06-05T14:50:39.203Z,99.90
2018-06-05T14:53:42.796Z,99.90
2018-06-05T14:56:46.422Z,99.90
2018-06-05T14:59:50.050Z,99.90
2018-06-05T15:02:53.662Z,99.90
2018-06-05T15:05:57.508Z,99.90
2018-06-05T15:09:01.134Z,99.90
2018-06-05T15:12:04.787Z,99.90
2018-06-05T15:18:11.768Z,99.20
2018-06-05T15:21:15.383Z,99.40
2018-06-05T15:27:22.489Z,99.90
2018-06-05T15:30:26.086Z,99.90
2018-06-05T15:36:33.070Z,99.70
2018-06-05T15:39:36.691Z,99.70
2018-06-05T15:45:43.779Z,99.60
2018-06-05T15:51:50.782Z,99.90
2018-06-05T15:54:54.428Z,99.70
2018-06-05T15:57:58.052Z,99.60
2018-06-05T16:01:01.686Z,99.50
2018-06-05T16:04:05.501Z,99.90
2018-06-05T16:07:09.111Z,99.90
2018-06-05T16:10:12.721Z,99.90
2018-06-05T16:13:16.365Z,99.90
2018-06-05T16:16:19.975Z,99.90
2018-06-05T16:19:23.602Z,99.60
2018-06-05T16:22:27.258Z,99.70
2018-06-05T16:25:30.895Z,99.00
2018-06-05T16:28:34.544Z,99.00
2018-06-05T16:31:38.182Z,99.00
2018-06-05T16:34:41.947Z,99.40
2018-06-05T16:37:45.580Z,98.60
2018-06-05T16:40:49.194Z,98.40
2018-06-05T16:43:52.851Z,98.60
2018-06-05T16:46:56.474Z,98.70
2018-06-05T16:50:00.135Z,98.60
2018-06-05T16:56:07.121Z,98.60
2018-06-05T16:59:10.739Z,99.00
2018-06-05T17:02:15.038Z,98.60
2018-06-05T17:05:18.629Z,98.40
2018-06-05T17:08:22.290Z,98.20
2018-06-05T17:11:25.899Z,97.60
2018-06-05T17:14:29.672Z,97.40
2018-06-05T17:17:33.275Z,97.80
2018-06-05T17:23:40.401Z,97.80
2018-06-05T17:26:44.042Z,97.80
2018-06-05T17:29:47.779Z,97.70
2018-06-05T17:32:51.482Z,97.60
2018-06-05T17:35:55.187Z,97.80
2018-06-05T17:38:58.891Z,98.10
2018-06-05T17:42:02.699Z,97.90
2018-06-05T17:45:06.306Z,97.80
2018-06-05T17:48:10.109Z,97.70
2018-06-05T17:54:17.089Z,95.90
2018-06-05T17:57:20.735Z,95.10
2018-06-05T18:00:24.838Z,94.40
2018-06-05T18:03:28.790Z,94.10
2018-06-05T18:06:32.423Z,92.60
2018-06-05T18:12:39.468Z,92.10
2018-06-05T18:15:43.113Z,91.30
2018-06-05T18:18:46.977Z,91.10
2018-06-05T18:21:50.612Z,88.30
2018-06-05T18:24:54.218Z,87.30
2018-06-05T18:27:57.845Z,84.20
2018-06-05T18:31:01.465Z,84.00
2018-06-05T18:34:05.112Z,84.50
2018-06-05T18:37:08.781Z,85.20
2018-06-05T18:40:12.357Z,86.10
2018-06-05T18:43:16.064Z,87.40
2018-06-05T18:46:19.696Z,88.50
2018-06-05T18:49:23.303Z,89.70
2018-06-05T18:52:26.990Z,90.10
2018-06-05T18:55:30.615Z,90.30
2018-06-05T18:58:34.270Z,90.30
